sensor_id;sensor_type;location;lat;lon;timestamp;pressure;altitude;pressure_sealevel;temperature;humidity
41706;BME280;27385;51.096;17.190;2023-02-03T00:00:55;101038.27;;;-0.76;82.25
41706;BME280;27385;51.096;17.190;2023-02-03T00:03:34;101035.85;;;-0.77;82.23
41706;BME280;27385;51.096;17.190;2023-02-03T00:06:06;101033.65;;;-0.77;82.28
41706;BME280;27385;51.096;17.190;2023-02-03T00:08:38;101030.83;;;-0.78;82.23
41706;BME280;27385;51.096;17.190;2023-02-03T00:11:09;101031.77;;;-0.78;82.24
41706;BME280;27385;51.096;17.190;2023-02-03T00:13:40;101033.25;;;-0.79;82.27
41706;BME280;27385;51.096;17.190;2023-02-03T00:16:10;101034.33;;;-0.80;82.33
41706;BME280;27385;51.096;17.190;2023-02-03T00:18:41;101032.30;;;-0.81;82.23
41706;BME280;27385;51.096;17.190;2023-02-03T00:21:12;101032.15;;;-0.82;82.32
41706;BME280;27385;51.096;17.190;2023-02-03T00:23:43;101030.80;;;-0.83;82.27
41706;BME280;27385;51.096;17.190;2023-02-03T00:26:16;101030.15;;;-0.85;82.54
41706;BME280;27385;51.096;17.190;2023-02-03T00:28:47;101022.17;;;-0.86;82.47
41706;BME280;27385;51.096;17.190;2023-02-03T00:31:20;101023.02;;;-0.89;82.50
41706;BME280;27385;51.096;17.190;2023-02-03T00:33:56;101024.26;;;-0.90;82.57
41706;BME280;27385;51.096;17.190;2023-02-03T00:36:27;101029.17;;;-0.92;82.66
41706;BME280;27385;51.096;17.190;2023-02-03T00:38:58;101032.45;;;-0.94;82.79
41706;BME280;27385;51.096;17.190;2023-02-03T00:41:31;101032.27;;;-0.97;82.85
41706;BME280;27385;51.096;17.190;2023-02-03T00:44:02;101028.03;;;-0.99;83.03
41706;BME280;27385;51.096;17.190;2023-02-03T00:46:33;101028.96;;;-1.01;83.23
41706;BME280;27385;51.096;17.190;2023-02-03T00:49:05;101027.08;;;-1.01;83.29
41706;BME280;27385;51.096;17.190;2023-02-03T00:51:36;101024.73;;;-1.02;83.21
41706;BME280;27385;51.096;17.190;2023-02-03T00:54:07;101022.77;;;-1.02;83.34
41706;BME280;27385;51.096;17.190;2023-02-03T00:56:39;101012.37;;;-1.02;83.39
41706;BME280;27385;51.096;17.190;2023-02-03T00:59:10;101009.30;;;-1.02;83.36
41706;BME280;27385;51.096;17.190;2023-02-03T01:01:40;101001.95;;;-1.03;83.43
41706;BME280;27385;51.096;17.190;2023-02-03T01:04:11;101007.65;;;-1.03;83.40
41706;BME280;27385;51.096;17.190;2023-02-03T01:06:42;101003.11;;;-1.03;83.47
41706;BME280;27385;51.096;17.190;2023-02-03T01:09:13;101003.98;;;-1.02;83.52
41706;BME280;27385;51.096;17.190;2023-02-03T01:11:44;101000.45;;;-1.02;83.47
41706;BME280;27385;51.096;17.190;2023-02-03T01:14:15;100998.17;;;-1.05;83.57
41706;BME280;27385;51.096;17.190;2023-02-03T01:16:47;100991.43;;;-1.08;83.66
41706;BME280;27385;51.096;17.190;2023-02-03T01:19:17;100987.34;;;-1.10;83.78
41706;BME280;27385;51.096;17.190;2023-02-03T01:21:48;100989.22;;;-1.10;83.84
41706;BME280;27385;51.096;17.190;2023-02-03T01:24:19;100984.89;;;-1.13;83.81
41706;BME280;27385;51.096;17.190;2023-02-03T01:26:51;100980.19;;;-1.14;83.97
41706;BME280;27385;51.096;17.190;2023-02-03T01:29:22;100975.40;;;-1.15;84.07
41706;BME280;27385;51.096;17.190;2023-02-03T01:31:52;100971.50;;;-1.14;84.17
41706;BME280;27385;51.096;17.190;2023-02-03T01:34:23;100964.92;;;-1.13;84.29
41706;BME280;27385;51.096;17.190;2023-02-03T01:36:54;100961.80;;;-1.12;84.24
41706;BME280;27385;51.096;17.190;2023-02-03T01:39:26;100958.36;;;-1.11;84.37
41706;BME280;27385;51.096;17.190;2023-02-03T01:41:56;100955.02;;;-1.10;84.35
41706;BME280;27385;51.096;17.190;2023-02-03T01:44:40;100955.26;;;-1.08;84.35
41706;BME280;27385;51.096;17.190;2023-02-03T01:47:23;100941.17;;;-1.07;84.41
41706;BME280;27385;51.096;17.190;2023-02-03T01:50:02;100928.02;;;-1.05;84.37
41706;BME280;27385;51.096;17.190;2023-02-03T01:52:36;100922.08;;;-1.04;84.39
41706;BME280;27385;51.096;17.190;2023-02-03T01:55:14;100916.44;;;-1.03;84.54
41706;BME280;27385;51.096;17.190;2023-02-03T01:57:49;100908.38;;;-1.02;84.55
41706;BME280;27385;51.096;17.190;2023-02-03T02:00:22;100902.98;;;-1.02;84.56
41706;BME280;27385;51.096;17.190;2023-02-03T02:02:54;100891.95;;;-1.04;84.64
41706;BME280;27385;51.096;17.190;2023-02-03T02:05:31;100881.83;;;-1.04;84.68
41706;BME280;27385;51.096;17.190;2023-02-03T02:08:04;100874.24;;;-1.03;84.67
41706;BME280;27385;51.096;17.190;2023-02-03T02:10:36;100865.87;;;-1.04;84.83
41706;BME280;27385;51.096;17.190;2023-02-03T02:13:08;100858.17;;;-1.06;84.79
41706;BME280;27385;51.096;17.190;2023-02-03T02:15:46;100849.64;;;-1.07;84.98
41706;BME280;27385;51.096;17.190;2023-02-03T02:18:27;100842.45;;;-1.08;85.20
41706;BME280;27385;51.096;17.190;2023-02-03T02:21:29;100841.35;;;-1.06;85.27
41706;BME280;27385;51.096;17.190;2023-02-03T02:24:41;100841.45;;;-1.04;85.20
41706;BME280;27385;51.096;17.190;2023-02-03T02:27:38;100849.97;;;-1.05;85.07
41706;BME280;27385;51.096;17.190;2023-02-03T02:30:33;100853.33;;;-1.05;85.20
41706;BME280;27385;51.096;17.190;2023-02-03T02:33:12;100857.86;;;-1.07;85.17
41706;BME280;27385;51.096;17.190;2023-02-03T02:35:50;100855.67;;;-1.07;85.21
41706;BME280;27385;51.096;17.190;2023-02-03T02:38:39;100840.25;;;-1.05;85.37
41706;BME280;27385;51.096;17.190;2023-02-03T02:41:19;100839.64;;;-1.04;85.39
41706;BME280;27385;51.096;17.190;2023-02-03T02:43:58;100846.60;;;-1.04;85.24
41706;BME280;27385;51.096;17.190;2023-02-03T02:46:35;100842.77;;;-1.04;85.19
41706;BME280;27385;51.096;17.190;2023-02-03T02:49:13;100831.81;;;-1.02;85.36
41706;BME280;27385;51.096;17.190;2023-02-03T02:51:47;100827.05;;;-0.98;85.54
41706;BME280;27385;51.096;17.190;2023-02-03T02:54:21;100819.84;;;-0.96;85.47
41706;BME280;27385;51.096;17.190;2023-02-03T02:56:56;100809.29;;;-0.93;85.59
41706;BME280;27385;51.096;17.190;2023-02-03T02:59:29;100803.81;;;-0.90;85.70
41706;BME280;27385;51.096;17.190;2023-02-03T03:02:00;100795.36;;;-0.91;85.79
41706;BME280;27385;51.096;17.190;2023-02-03T03:04:32;100784.46;;;-0.94;86.06
41706;BME280;27385;51.096;17.190;2023-02-03T03:07:06;100781.41;;;-0.96;86.06
41706;BME280;27385;51.096;17.190;2023-02-03T03:09:40;100773.56;;;-0.96;86.25
41706;BME280;27385;51.096;17.190;2023-02-03T03:12:16;100767.08;;;-0.96;86.37
41706;BME280;27385;51.096;17.190;2023-02-03T03:14:51;100758.77;;;-0.95;86.46
41706;BME280;27385;51.096;17.190;2023-02-03T03:17:27;100745.16;;;-0.96;86.63
41706;BME280;27385;51.096;17.190;2023-02-03T03:20:05;100735.05;;;-0.96;86.70
41706;BME280;27385;51.096;17.190;2023-02-03T03:22:43;100734.89;;;-0.95;86.88
41706;BME280;27385;51.096;17.190;2023-02-03T03:25:17;100727.85;;;-0.96;86.97
41706;BME280;27385;51.096;17.190;2023-02-03T03:27:50;100726.45;;;-0.96;86.97
41706;BME280;27385;51.096;17.190;2023-02-03T03:30:25;100729.17;;;-0.96;87.04
41706;BME280;27385;51.096;17.190;2023-02-03T03:32:58;100728.15;;;-0.97;87.27
41706;BME280;27385;51.096;17.190;2023-02-03T03:35:34;100725.96;;;-0.97;87.31
41706;BME280;27385;51.096;17.190;2023-02-03T03:38:13;100720.02;;;-0.97;87.38
41706;BME280;27385;51.096;17.190;2023-02-03T03:40:50;100714.07;;;-0.98;87.51
41706;BME280;27385;51.096;17.190;2023-02-03T03:43:26;100710.23;;;-0.96;87.54
41706;BME280;27385;51.096;17.190;2023-02-03T03:46:02;100707.34;;;-0.95;87.59
41706;BME280;27385;51.096;17.190;2023-02-03T03:48:39;100711.25;;;-0.93;87.68
41706;BME280;27385;51.096;17.190;2023-02-03T03:51:19;100717.98;;;-0.92;87.74
41706;BME280;27385;51.096;17.190;2023-02-03T03:53:52;100720.97;;;-0.90;87.84
41706;BME280;27385;51.096;17.190;2023-02-03T03:56:29;100721.43;;;-0.89;87.75
41706;BME280;27385;51.096;17.190;2023-02-03T03:59:03;100716.66;;;-0.86;87.81
41706;BME280;27385;51.096;17.190;2023-02-03T04:01:37;100713.77;;;-0.84;87.85
41706;BME280;27385;51.096;17.190;2023-02-03T04:04:10;100710.94;;;-0.83;87.83
41706;BME280;27385;51.096;17.190;2023-02-03T04:06:43;100705.70;;;-0.82;88.04
41706;BME280;27385;51.096;17.190;2023-02-03T04:09:14;100696.16;;;-0.83;88.08
41706;BME280;27385;51.096;17.190;2023-02-03T04:11:45;100697.79;;;-0.83;87.98
41706;BME280;27385;51.096;17.190;2023-02-03T04:14:34;100696.46;;;-0.80;88.16
41706;BME280;27385;51.096;17.190;2023-02-03T04:17:07;100697.70;;;-0.78;88.13
41706;BME280;27385;51.096;17.190;2023-02-03T04:19:38;100698.73;;;-0.77;88.24
41706;BME280;27385;51.096;17.190;2023-02-03T04:22:09;100702.88;;;-0.77;88.19
41706;BME280;27385;51.096;17.190;2023-02-03T04:24:39;100700.30;;;-0.76;88.08
41706;BME280;27385;51.096;17.190;2023-02-03T04:27:11;100691.98;;;-0.74;88.17
41706;BME280;27385;51.096;17.190;2023-02-03T04:29:42;100684.55;;;-0.72;88.22
41706;BME280;27385;51.096;17.190;2023-02-03T04:32:13;100673.83;;;-0.70;88.15
41706;BME280;27385;51.096;17.190;2023-02-03T04:34:44;100667.71;;;-0.69;88.28
41706;BME280;27385;51.096;17.190;2023-02-03T04:37:14;100662.39;;;-0.67;88.23
41706;BME280;27385;51.096;17.190;2023-02-03T04:39:45;100658.08;;;-0.66;88.27
41706;BME280;27385;51.096;17.190;2023-02-03T04:42:16;100647.56;;;-0.63;88.25
41706;BME280;27385;51.096;17.190;2023-02-03T04:44:47;100645.69;;;-0.61;88.15
41706;BME280;27385;51.096;17.190;2023-02-03T04:47:18;100639.65;;;-0.59;88.21
41706;BME280;27385;51.096;17.190;2023-02-03T04:49:49;100630.56;;;-0.58;88.16
41706;BME280;27385;51.096;17.190;2023-02-03T04:52:20;100626.09;;;-0.56;88.21
41706;BME280;27385;51.096;17.190;2023-02-03T04:54:51;100622.02;;;-0.55;88.13
41706;BME280;27385;51.096;17.190;2023-02-03T04:57:22;100617.64;;;-0.54;88.17
41706;BME280;27385;51.096;17.190;2023-02-03T04:59:52;100616.93;;;-0.52;88.15
41706;BME280;27385;51.096;17.190;2023-02-03T05:02:23;100615.58;;;-0.48;88.21
41706;BME280;27385;51.096;17.190;2023-02-03T05:04:54;100611.02;;;-0.46;88.26
41706;BME280;27385;51.096;17.190;2023-02-03T05:07:25;100604.84;;;-0.44;88.30
41706;BME280;27385;51.096;17.190;2023-02-03T05:09:56;100597.55;;;-0.42;88.21
41706;BME280;27385;51.096;17.190;2023-02-03T05:12:27;100592.77;;;-0.41;88.21
41706;BME280;27385;51.096;17.190;2023-02-03T05:14:58;100587.98;;;-0.39;88.24
41706;BME280;27385;51.096;17.190;2023-02-03T05:17:29;100587.03;;;-0.38;88.28
41706;BME280;27385;51.096;17.190;2023-02-03T05:20:00;100584.05;;;-0.38;88.21
41706;BME280;27385;51.096;17.190;2023-02-03T05:22:30;100583.82;;;-0.35;88.27
41706;BME280;27385;51.096;17.190;2023-02-03T05:25:04;100579.96;;;-0.33;88.24
41706;BME280;27385;51.096;17.190;2023-02-03T05:27:36;100572.04;;;-0.32;88.24
41706;BME280;27385;51.096;17.190;2023-02-03T05:30:10;100563.66;;;-0.31;88.14
41706;BME280;27385;51.096;17.190;2023-02-03T05:32:40;100557.61;;;-0.30;88.26
41706;BME280;27385;51.096;17.190;2023-02-03T05:35:11;100558.32;;;-0.29;88.16
41706;BME280;27385;51.096;17.190;2023-02-03T05:37:44;100550.30;;;-0.28;88.14
41706;BME280;27385;51.096;17.190;2023-02-03T05:40:15;100553.12;;;-0.26;88.27
41706;BME280;27385;51.096;17.190;2023-02-03T05:43:04;100551.95;;;-0.25;88.30
41706;BME280;27385;51.096;17.190;2023-02-03T05:45:36;100546.21;;;-0.22;88.34
41706;BME280;27385;51.096;17.190;2023-02-03T05:48:07;100546.74;;;-0.19;88.33
41706;BME280;27385;51.096;17.190;2023-02-03T05:50:38;100547.06;;;-0.17;88.31
41706;BME280;27385;51.096;17.190;2023-02-03T05:53:09;100545.09;;;-0.14;88.43
41706;BME280;27385;51.096;17.190;2023-02-03T05:55:40;100538.79;;;-0.12;88.78
41706;BME280;27385;51.096;17.190;2023-02-03T05:58:11;100540.13;;;-0.12;89.04
41706;BME280;27385;51.096;17.190;2023-02-03T06:00:41;100527.89;;;-0.10;89.25
41706;BME280;27385;51.096;17.190;2023-02-03T06:03:13;100519.41;;;-0.10;89.48
41706;BME280;27385;51.096;17.190;2023-02-03T06:05:44;100512.28;;;-0.09;89.72
41706;BME280;27385;51.096;17.190;2023-02-03T06:08:15;100512.98;;;-0.09;89.76
41706;BME280;27385;51.096;17.190;2023-02-03T06:10:46;100507.72;;;-0.08;89.86
41706;BME280;27385;51.096;17.190;2023-02-03T06:13:17;100504.11;;;-0.07;90.12
41706;BME280;27385;51.096;17.190;2023-02-03T06:15:48;100493.30;;;-0.08;90.41
41706;BME280;27385;51.096;17.190;2023-02-03T06:18:19;100490.86;;;-0.08;90.55
41706;BME280;27385;51.096;17.190;2023-02-03T06:20:51;100483.95;;;-0.07;90.72
41706;BME280;27385;51.096;17.190;2023-02-03T06:23:22;100479.02;;;-0.06;90.85
41706;BME280;27385;51.096;17.190;2023-02-03T06:25:53;100473.97;;;-0.04;91.09
41706;BME280;27385;51.096;17.190;2023-02-03T06:28:24;100468.41;;;-0.03;91.19
41706;BME280;27385;51.096;17.190;2023-02-03T06:30:55;100459.71;;;-0.03;91.30
41706;BME280;27385;51.096;17.190;2023-02-03T06:33:25;100456.64;;;-0.02;91.45
41706;BME280;27385;51.096;17.190;2023-02-03T06:35:56;100455.55;;;-0.01;91.49
41706;BME280;27385;51.096;17.190;2023-02-03T06:38:27;100448.09;;;0.00;91.68
41706;BME280;27385;51.096;17.190;2023-02-03T06:40:58;100443.23;;;0.01;91.76
41706;BME280;27385;51.096;17.190;2023-02-03T06:43:29;100439.21;;;0.02;92.03
41706;BME280;27385;51.096;17.190;2023-02-03T06:46:00;100436.31;;;0.01;92.11
41706;BME280;27385;51.096;17.190;2023-02-03T06:48:30;100427.23;;;0.02;92.22
41706;BME280;27385;51.096;17.190;2023-02-03T06:51:02;100424.46;;;0.03;92.23
41706;BME280;27385;51.096;17.190;2023-02-03T06:53:34;100409.80;;;0.04;92.52
41706;BME280;27385;51.096;17.190;2023-02-03T06:56:05;100394.89;;;0.04;92.65
41706;BME280;27385;51.096;17.190;2023-02-03T06:58:36;100384.22;;;0.04;92.89
41706;BME280;27385;51.096;17.190;2023-02-03T07:01:07;100375.05;;;0.05;93.12
41706;BME280;27385;51.096;17.190;2023-02-03T07:03:38;100364.03;;;0.07;93.06
41706;BME280;27385;51.096;17.190;2023-02-03T07:06:09;100359.09;;;0.09;93.18
41706;BME280;27385;51.096;17.190;2023-02-03T07:08:40;100356.80;;;0.10;93.38
41706;BME280;27385;51.096;17.190;2023-02-03T07:11:11;100347.92;;;0.12;93.49
41706;BME280;27385;51.096;17.190;2023-02-03T07:13:42;100339.42;;;0.15;93.68
41706;BME280;27385;51.096;17.190;2023-02-03T07:16:13;100334.87;;;0.16;93.87
41706;BME280;27385;51.096;17.190;2023-02-03T07:18:45;100333.98;;;0.18;93.92
41706;BME280;27385;51.096;17.190;2023-02-03T07:21:16;100330.43;;;0.21;94.02
41706;BME280;27385;51.096;17.190;2023-02-03T07:23:48;100324.37;;;0.23;93.92
41706;BME280;27385;51.096;17.190;2023-02-03T07:26:19;100314.70;;;0.25;94.11
41706;BME280;27385;51.096;17.190;2023-02-03T07:28:51;100302.12;;;0.27;94.19
41706;BME280;27385;51.096;17.190;2023-02-03T07:31:23;100290.88;;;0.29;94.29
41706;BME280;27385;51.096;17.190;2023-02-03T07:33:53;100280.89;;;0.32;94.38
41706;BME280;27385;51.096;17.190;2023-02-03T07:36:24;100272.64;;;0.33;94.21
41706;BME280;27385;51.096;17.190;2023-02-03T07:38:56;100274.50;;;0.34;94.57
41706;BME280;27385;51.096;17.190;2023-02-03T07:41:30;100268.84;;;0.36;94.44
41706;BME280;27385;51.096;17.190;2023-02-03T07:44:08;100259.65;;;0.38;94.58
41706;BME280;27385;51.096;17.190;2023-02-03T07:46:40;100256.19;;;0.39;94.62
41706;BME280;27385;51.096;17.190;2023-02-03T07:49:13;100247.55;;;0.39;94.74
41706;BME280;27385;51.096;17.190;2023-02-03T07:51:45;100237.66;;;0.39;94.91
41706;BME280;27385;51.096;17.190;2023-02-03T07:54:16;100230.66;;;0.41;94.84
41706;BME280;27385;51.096;17.190;2023-02-03T07:56:47;100216.68;;;0.41;94.91
41706;BME280;27385;51.096;17.190;2023-02-03T08:23:52;100150.89;;;0.45;95.77
41706;BME280;27385;51.096;17.190;2023-02-03T08:38:35;100112.80;;;0.52;95.81
41706;BME280;27385;51.096;17.190;2023-02-03T08:41:11;100105.00;;;0.54;95.88
41706;BME280;27385;51.096;17.190;2023-02-03T08:43:42;100103.66;;;0.55;95.86
41706;BME280;27385;51.096;17.190;2023-02-03T08:46:13;100095.39;;;0.57;95.85
41706;BME280;27385;51.096;17.190;2023-02-03T08:48:44;100096.44;;;0.60;95.96
41706;BME280;27385;51.096;17.190;2023-02-03T08:51:16;100089.64;;;0.63;95.88
41706;BME280;27385;51.096;17.190;2023-02-03T08:53:47;100086.79;;;0.65;95.97
41706;BME280;27385;51.096;17.190;2023-02-03T08:56:18;100083.52;;;0.68;95.93
41706;BME280;27385;51.096;17.190;2023-02-03T08:58:49;100084.90;;;0.70;96.01
41706;BME280;27385;51.096;17.190;2023-02-03T09:01:20;100067.89;;;0.73;95.96
41706;BME280;27385;51.096;17.190;2023-02-03T09:03:51;100056.92;;;0.77;95.98
41706;BME280;27385;51.096;17.190;2023-02-03T09:06:22;100034.05;;;0.79;96.11
41706;BME280;27385;51.096;17.190;2023-02-03T09:08:53;100021.39;;;0.80;96.13
41706;BME280;27385;51.096;17.190;2023-02-03T09:11:24;100037.70;;;0.81;96.21
41706;BME280;27385;51.096;17.190;2023-02-03T09:13:55;100036.23;;;0.85;96.28
41706;BME280;27385;51.096;17.190;2023-02-03T09:16:26;100031.94;;;0.88;96.37
41706;BME280;27385;51.096;17.190;2023-02-03T09:18:59;100025.28;;;0.92;96.43
41706;BME280;27385;51.096;17.190;2023-02-03T09:21:30;100022.92;;;0.96;96.53
41706;BME280;27385;51.096;17.190;2023-02-03T09:24:02;100009.38;;;0.99;96.39
41706;BME280;27385;51.096;17.190;2023-02-03T09:26:33;100000.86;;;1.00;96.36
41706;BME280;27385;51.096;17.190;2023-02-03T09:29:04;99992.84;;;1.01;96.37
41706;BME280;27385;51.096;17.190;2023-02-03T09:31:35;99984.00;;;1.03;96.39
41706;BME280;27385;51.096;17.190;2023-02-03T09:34:06;99983.16;;;1.06;96.41
41706;BME280;27385;51.096;17.190;2023-02-03T09:36:37;99985.05;;;1.06;96.53
41706;BME280;27385;51.096;17.190;2023-02-03T09:39:08;99977.11;;;1.06;96.49
41706;BME280;27385;51.096;17.190;2023-02-03T09:41:53;99972.45;;;1.07;96.44
41706;BME280;27385;51.096;17.190;2023-02-03T09:44:33;99963.61;;;1.10;96.54
41706;BME280;27385;51.096;17.190;2023-02-03T09:47:12;99955.64;;;1.12;96.53
41706;BME280;27385;51.096;17.190;2023-02-03T09:49:47;99941.31;;;1.14;96.60
41706;BME280;27385;51.096;17.190;2023-02-03T09:52:22;99937.47;;;1.13;96.58
41706;BME280;27385;51.096;17.190;2023-02-03T09:54:57;99924.75;;;1.13;96.68
41706;BME280;27385;51.096;17.190;2023-02-03T09:57:34;99918.72;;;1.12;96.67
41706;BME280;27385;51.096;17.190;2023-02-03T10:00:15;99909.90;;;1.13;96.66
41706;BME280;27385;51.096;17.190;2023-02-03T10:02:55;99911.27;;;1.16;96.83
41706;BME280;27385;51.096;17.190;2023-02-03T10:05:49;99906.09;;;1.18;96.87
41706;BME280;27385;51.096;17.190;2023-02-03T10:08:44;99904.73;;;1.20;96.97
41706;BME280;27385;51.096;17.190;2023-02-03T10:11:24;99896.27;;;1.19;96.94
41706;BME280;27385;51.096;17.190;2023-02-03T10:14:07;99874.64;;;1.20;97.03
41706;BME280;27385;51.096;17.190;2023-02-03T10:16:51;99869.69;;;1.20;97.10
41706;BME280;27385;51.096;17.190;2023-02-03T10:19:31;99856.87;;;1.20;97.06
41706;BME280;27385;51.096;17.190;2023-02-03T10:22:12;99846.20;;;1.23;97.20
41706;BME280;27385;51.096;17.190;2023-02-03T10:24:49;99836.73;;;1.26;97.40
41706;BME280;27385;51.096;17.190;2023-02-03T10:27:23;99826.48;;;1.28;97.41
41706;BME280;27385;51.096;17.190;2023-02-03T10:29:59;99816.52;;;1.30;97.54
41706;BME280;27385;51.096;17.190;2023-02-03T10:32:33;99813.80;;;1.32;97.74
41706;BME280;27385;51.096;17.190;2023-02-03T10:35:12;99800.80;;;1.34;97.82
41706;BME280;27385;51.096;17.190;2023-02-03T10:37:45;99796.87;;;1.37;97.98
41706;BME280;27385;51.096;17.190;2023-02-03T10:40:18;99786.73;;;1.40;98.16
41706;BME280;27385;51.096;17.190;2023-02-03T10:42:50;99775.77;;;1.43;98.11
41706;BME280;27385;51.096;17.190;2023-02-03T10:45:39;99759.59;;;1.46;98.14
41706;BME280;27385;51.096;17.190;2023-02-03T10:48:15;99746.66;;;1.47;98.32
41706;BME280;27385;51.096;17.190;2023-02-03T10:50:49;99738.92;;;1.49;98.31
41706;BME280;27385;51.096;17.190;2023-02-03T10:53:24;99726.21;;;1.51;98.37
41706;BME280;27385;51.096;17.190;2023-02-03T10:56:04;99714.16;;;1.52;98.34
41706;BME280;27385;51.096;17.190;2023-02-03T10:58:39;99703.87;;;1.55;98.38
41706;BME280;27385;51.096;17.190;2023-02-03T11:01:18;99694.94;;;1.56;98.43
41706;BME280;27385;51.096;17.190;2023-02-03T11:03:58;99687.74;;;1.59;98.57
41706;BME280;27385;51.096;17.190;2023-02-03T11:06:31;99675.10;;;1.61;98.75
41706;BME280;27385;51.096;17.190;2023-02-03T11:09:02;99674.41;;;1.64;98.74
41706;BME280;27385;51.096;17.190;2023-02-03T11:12:04;99669.33;;;1.65;98.78
41706;BME280;27385;51.096;17.190;2023-02-03T11:14:39;99660.32;;;1.68;98.77
41706;BME280;27385;51.096;17.190;2023-02-03T11:17:16;99654.08;;;1.69;98.67
41706;BME280;27385;51.096;17.190;2023-02-03T11:19:48;99647.60;;;1.70;98.65
41706;BME280;27385;51.096;17.190;2023-02-03T11:22:32;99638.13;;;1.72;98.81
41706;BME280;27385;51.096;17.190;2023-02-03T11:25:14;99627.00;;;1.73;98.91
41706;BME280;27385;51.096;17.190;2023-02-03T11:27:46;99611.23;;;1.75;99.07
41706;BME280;27385;51.096;17.190;2023-02-03T11:30:22;99600.67;;;1.76;99.13
41706;BME280;27385;51.096;17.190;2023-02-03T11:32:54;99595.25;;;1.78;99.15
41706;BME280;27385;51.096;17.190;2023-02-03T11:35:28;99589.30;;;1.80;99.14
41706;BME280;27385;51.096;17.190;2023-02-03T11:38:02;99584.84;;;1.82;99.25
41706;BME280;27385;51.096;17.190;2023-02-03T11:40:33;99577.48;;;1.83;99.23
41706;BME280;27385;51.096;17.190;2023-02-03T11:43:16;99571.17;;;1.84;99.28
41706;BME280;27385;51.096;17.190;2023-02-03T11:45:49;99561.90;;;1.87;99.33
41706;BME280;27385;51.096;17.190;2023-02-03T11:48:28;99551.80;;;1.88;99.46
41706;BME280;27385;51.096;17.190;2023-02-03T11:51:07;99552.52;;;1.90;99.39
41706;BME280;27385;51.096;17.190;2023-02-03T11:53:57;99543.89;;;1.92;99.51
41706;BME280;27385;51.096;17.190;2023-02-03T11:56:56;99539.73;;;1.95;99.52
41706;BME280;27385;51.096;17.190;2023-02-03T11:59:44;99529.39;;;1.96;99.60
41706;BME280;27385;51.096;17.190;2023-02-03T12:05:41;99511.27;;;2.00;99.67
41706;BME280;27385;51.096;17.190;2023-02-03T12:08:25;99506.09;;;2.02;99.78
41706;BME280;27385;51.096;17.190;2023-02-03T12:11:07;99496.89;;;2.04;99.88
41706;BME280;27385;51.096;17.190;2023-02-03T12:13:58;99488.69;;;2.07;99.90
41706;BME280;27385;51.096;17.190;2023-02-03T12:16:54;99488.85;;;2.10;99.85
41706;BME280;27385;51.096;17.190;2023-02-03T12:19:37;99487.60;;;2.12;99.98
41706;BME280;27385;51.096;17.190;2023-02-03T12:22:17;99480.98;;;2.13;100.00
41706;BME280;27385;51.096;17.190;2023-02-03T12:24:58;99481.17;;;2.14;99.98
41706;BME280;27385;51.096;17.190;2023-02-03T12:27:44;99477.52;;;2.15;99.94
41706;BME280;27385;51.096;17.190;2023-02-03T12:30:23;99466.05;;;2.17;100.00
41706;BME280;27385;51.096;17.190;2023-02-03T12:32:57;99457.89;;;2.19;100.00
41706;BME280;27385;51.096;17.190;2023-02-03T12:35:35;99448.88;;;2.23;100.00
41706;BME280;27385;51.096;17.190;2023-02-03T12:38:15;99441.10;;;2.27;100.00
41706;BME280;27385;51.096;17.190;2023-02-03T12:40:53;99435.11;;;2.35;100.00
41706;BME280;27385;51.096;17.190;2023-02-03T12:43:29;99424.48;;;2.46;100.00
41706;BME280;27385;51.096;17.190;2023-02-03T12:46:11;99416.09;;;2.60;100.00
41706;BME280;27385;51.096;17.190;2023-02-03T12:48:49;99414.35;;;2.77;100.00
41706;BME280;27385;51.096;17.190;2023-02-03T12:51:30;99405.20;;;2.93;100.00
41706;BME280;27385;51.096;17.190;2023-02-03T12:54:06;99398.70;;;3.11;100.00
41706;BME280;27385;51.096;17.190;2023-02-03T12:56:42;99396.11;;;3.28;100.00
41706;BME280;27385;51.096;17.190;2023-02-03T12:59:17;99388.66;;;3.44;100.00
41706;BME280;27385;51.096;17.190;2023-02-03T13:01:55;99381.43;;;3.56;100.00
41706;BME280;27385;51.096;17.190;2023-02-03T13:04:32;99378.41;;;3.64;100.00
41706;BME280;27385;51.096;17.190;2023-02-03T13:07:10;99379.73;;;3.73;100.00
41706;BME280;27385;51.096;17.190;2023-02-03T13:09:46;99379.29;;;3.81;100.00
41706;BME280;27385;51.096;17.190;2023-02-03T13:12:26;99380.48;;;3.88;100.00
41706;BME280;27385;51.096;17.190;2023-02-03T13:15:05;99377.16;;;3.96;100.00
41706;BME280;27385;51.096;17.190;2023-02-03T13:17:51;99376.75;;;4.02;100.00
41706;BME280;27385;51.096;17.190;2023-02-03T13:20:25;99375.70;;;4.07;100.00
41706;BME280;27385;51.096;17.190;2023-02-03T13:22:59;99372.52;;;4.12;100.00
41706;BME280;27385;51.096;17.190;2023-02-03T13:25:41;99374.02;;;4.16;100.00
41706;BME280;27385;51.096;17.190;2023-02-03T13:28:20;99372.54;;;4.19;100.00
41706;BME280;27385;51.096;17.190;2023-02-03T13:31:09;99367.91;;;4.22;100.00
41706;BME280;27385;51.096;17.190;2023-02-03T13:34:09;99368.20;;;4.27;100.00
41706;BME280;27385;51.096;17.190;2023-02-03T13:37:00;99363.17;;;4.32;100.00
41706;BME280;27385;51.096;17.190;2023-02-03T13:39:48;99363.70;;;4.36;100.00
41706;BME280;27385;51.096;17.190;2023-02-03T13:42:25;99375.71;;;4.43;100.00
41706;BME280;27385;51.096;17.190;2023-02-03T13:45:10;99382.11;;;4.47;100.00
41706;BME280;27385;51.096;17.190;2023-02-03T13:47:48;99391.95;;;4.55;100.00
41706;BME280;27385;51.096;17.190;2023-02-03T13:50:23;99397.14;;;4.65;100.00
41706;BME280;27385;51.096;17.190;2023-02-03T13:52:58;99387.27;;;4.76;100.00
41706;BME280;27385;51.096;17.190;2023-02-03T13:55:36;99369.95;;;4.84;100.00
41706;BME280;27385;51.096;17.190;2023-02-03T13:58:19;99368.65;;;4.91;100.00
41706;BME280;27385;51.096;17.190;2023-02-03T14:01:06;99377.45;;;5.02;100.00
41706;BME280;27385;51.096;17.190;2023-02-03T14:03:44;99381.22;;;5.08;100.00
41706;BME280;27385;51.096;17.190;2023-02-03T14:09:44;99394.77;;;5.18;100.00
41706;BME280;27385;51.096;17.190;2023-02-03T14:12:34;99395.05;;;5.19;100.00